Time;durP1;ratioP1;P1;durP2;ratioP2;P2;SDS_P1;SDS_P2;PMS_P1;PMS_P2;Temp;Humidity;BMP_temperature;BMP_pressure;BME280_temperature;BME280_humidity;BME280_pressure;Samples;Min_cycle;Max_cycle;Signal;HPM_P1;HPM_P2
2022/03/26 00:02:12;;;;;;;32.25;25.77;;;;;;;5.61;64.78;96833.22;4990815;28;24444;-74
2022/03/26 00:04:39;;;;;;;29.33;24.25;;;;;;;5.27;65.46;96836.63;4990782;28;24503;-74
2022/03/26 00:07:05;;;;;;;30.33;25.23;;;;;;;5.16;65.93;96843.75;4990985;28;24440;-74
2022/03/26 00:09:32;;;;;;;35.10;25.27;;;;;;;4.99;66.69;96833.88;4990525;28;24437;-73
2022/03/26 00:11:58;;;;;;;31.55;26.20;;;;;;;5.01;67.02;96834.69;4990360;28;24846;-73
2022/03/26 00:14:25;;;;;;;32.90;27.80;;;;;;;4.94;67.83;96836.56;4990704;28;24429;-73
2022/03/26 00:16:51;;;;;;;29.77;24.92;;;;;;;4.91;67.32;96839.19;4990856;28;24883;-74
2022/03/26 00:19:19;;;;;;;27.90;24.70;;;;;;;4.85;68.77;96841.91;4990051;28;24440;-73
2022/03/26 00:21:48;;;;;;;30.95;25.90;;;;;;;4.94;68.68;96841.69;4990496;28;25005;-74
2022/03/26 00:24:15;;;;;;;27.83;24.05;;;;;;;4.77;67.11;96841.22;4990557;28;24982;-74
2022/03/26 00:26:41;;;;;;;31.08;24.73;;;;;;;4.63;68.38;96844.09;4980201;28;24437;-74
2022/03/26 00:29:09;;;;;;;30.85;25.48;;;;;;;4.46;67.67;96835.94;4991037;28;25021;-74
2022/03/26 00:31:37;;;;;;;32.13;27.38;;;;;;;4.25;70.09;96842.38;4994721;28;24452;-74
2022/03/26 00:34:04;;;;;;;33.10;25.55;;;;;;;4.14;70.28;96834.88;4994546;28;24437;-74
2022/03/26 00:36:33;;;;;;;29.30;25.98;;;;;;;4.22;68.75;96837.28;4994198;28;25088;-73
2022/03/26 00:38:59;;;;;;;30.02;26.25;;;;;;;4.01;71.31;96836.03;4994277;28;24441;-74
2022/03/26 00:41:26;;;;;;;29.63;26.42;;;;;;;4.00;71.70;96842.00;4994228;28;24444;-73
2022/03/26 00:43:52;;;;;;;33.17;26.30;;;;;;;3.96;71.30;96830.13;4994429;28;24456;-73
2022/03/26 00:46:19;;;;;;;32.70;27.23;;;;;;;3.77;73.29;96827.94;4993933;28;24433;-73
2022/03/26 00:48:46;;;;;;;29.95;26.67;;;;;;;3.73;72.44;96825.47;4994134;28;24465;-73
2022/03/26 00:51:15;;;;;;;37.10;29.17;;;;;;;3.66;72.59;96829.84;4994301;28;24541;-73
2022/03/26 00:53:42;;;;;;;35.63;27.65;;;;;;;3.74;72.12;96824.56;4994012;28;24989;-73
2022/03/26 00:56:09;;;;;;;34.45;27.55;;;;;;;3.68;72.14;96830.69;4994201;28;24436;-73
2022/03/26 00:58:35;;;;;;;38.60;27.13;;;;;;;3.44;72.62;96834.50;4993544;28;25001;-73
2022/03/26 01:01:02;;;;;;;36.17;30.13;;;;;;;3.21;74.87;96826.41;4993431;28;24531;-73
2022/03/26 01:03:28;;;;;;;33.33;28.17;;;;;;;3.19;75.27;96826.44;4993849;28;24878;-74
2022/03/26 01:05:55;;;;;;;43.40;31.13;;;;;;;2.94;77.25;96827.69;4993456;28;24441;-74
2022/03/26 01:08:21;;;;;;;35.45;30.33;;;;;;;2.90;78.66;96842.25;4993717;28;24444;-73
2022/03/26 01:10:49;;;;;;;33.75;29.13;;;;;;;2.96;78.55;96829.34;4993288;28;24846;-73
2022/03/26 01:13:16;;;;;;;38.03;30.08;;;;;;;3.06;78.60;96833.44;4994099;28;24527;-73
2022/03/26 01:15:43;;;;;;;31.58;28.08;;;;;;;3.17;77.10;96830.72;4993718;28;24448;-74
2022/03/26 01:18:10;;;;;;;32.05;28.70;;;;;;;3.29;77.17;96827.09;4993884;28;24500;-71
2022/03/26 01:20:36;;;;;;;33.47;29.60;;;;;;;3.39;75.61;96826.06;4993904;28;24475;-71
2022/03/26 01:23:03;;;;;;;32.50;29.02;;;;;;;3.32;76.10;96832.19;4993677;28;24464;-72
2022/03/26 01:25:30;;;;;;;35.10;28.27;;;;;;;3.37;76.93;96827.81;4993653;28;24448;-72
2022/03/26 01:27:58;;;;;;;32.00;26.88;;;;;;;3.46;77.92;96829.38;4993421;28;24839;-72
2022/03/26 01:30:25;;;;;;;29.55;26.20;;;;;;;3.56;77.05;96836.88;4982379;28;25025;-71
2022/03/26 01:32:52;;;;;;;28.98;25.75;;;;;;;3.66;76.87;96834.97;4993370;28;24911;-71
2022/03/26 01:35:19;;;;;;;32.40;26.75;;;;;;;3.74;75.63;96837.38;4993642;28;24476;-71
2022/03/26 01:37:46;;;;;;;30.27;26.48;;;;;;;3.79;76.25;96835.59;4993565;28;24527;-72
2022/03/26 01:40:13;;;;;;;31.20;26.25;;;;;;;3.85;75.32;96820.94;4992382;28;25005;-73
2022/03/26 01:42:39;;;;;;;28.70;25.20;;;;;;;3.86;74.98;96829.50;4992946;28;25223;-73
2022/03/26 01:45:11;;;;;;;33.78;27.73;;;;;;;3.83;75.13;96830.38;4993038;28;24452;-72
2022/03/26 01:47:37;;;;;;;30.13;26.50;;;;;;;3.84;76.19;96828.66;4993338;28;24448;-73
2022/03/26 01:50:05;;;;;;;31.52;26.38;;;;;;;3.91;76.06;96829.38;4992426;28;24884;-72
2022/03/26 01:52:32;;;;;;;29.63;25.63;;;;;;;3.95;74.38;96823.31;4990923;28;24503;-73
2022/03/26 01:54:59;;;;;;;29.83;26.38;;;;;;;3.96;74.56;96823.28;4990875;28;24440;-72
2022/03/26 01:57:26;;;;;;;34.45;27.45;;;;;;;3.97;75.18;96821.56;4990756;28;24839;-72
2022/03/26 01:59:53;;;;;;;31.30;27.83;;;;;;;3.95;74.95;96826.72;4990804;28;24551;-72
2022/03/26 02:02:22;;;;;;;30.65;26.67;;;;;;;4.00;74.75;96824.06;4990290;28;25319;-72
2022/03/26 02:04:49;;;;;;;31.30;26.55;;;;;;;4.00;74.59;96827.47;4990556;28;24461;-72
2022/03/26 02:07:16;;;;;;;29.00;25.88;;;;;;;3.91;73.78;96831.94;4992296;28;25035;-72
2022/03/26 02:09:43;;;;;;;33.22;26.30;;;;;;;3.87;74.70;96824.31;4992027;28;24882;-74
2022/03/26 02:12:23;;;;;;;31.70;27.97;;;;;;;3.80;75.41;96829.59;4989735;28;24524;-75
2022/03/26 02:14:50;;;;;;;32.15;26.45;;;;;;;3.82;75.30;96818.44;4985194;28;24448;-75
2022/03/26 02:17:16;;;;;;;32.30;26.70;;;;;;;3.81;75.31;96819.31;4982014;28;24491;-75
2022/03/26 02:19:48;;;;;;;32.40;27.40;;;;;;;3.76;75.62;96822.84;4986401;28;24440;-74
2022/03/26 02:22:14;;;;;;;33.55;26.23;;;;;;;3.75;75.32;96818.59;4991993;28;24434;-75
2022/03/26 02:24:41;;;;;;;32.17;26.50;;;;;;;3.78;75.65;96811.69;4984518;28;24859;-73
2022/03/26 02:27:08;;;;;;;34.83;27.10;;;;;;;3.82;75.49;96815.00;4992236;28;24499;-75
2022/03/26 02:29:34;;;;;;;35.97;29.50;;;;;;;3.73;76.63;96817.78;4984818;28;24441;-74
2022/03/26 02:32:01;;;;;;;34.33;29.48;;;;;;;3.71;77.26;96810.13;4992306;28;24440;-74
2022/03/26 02:34:28;;;;;;;32.03;28.63;;;;;;;3.82;77.61;96815.88;4991600;28;24433;-74
2022/03/26 02:36:56;;;;;;;32.45;28.83;;;;;;;3.83;72.76;96820.13;4982398;28;24444;-75
2022/03/26 02:39:23;;;;;;;32.63;26.90;;;;;;;3.62;71.22;96812.84;4991641;28;24638;-74
2022/03/26 02:41:49;;;;;;;31.47;27.73;;;;;;;3.25;73.98;96812.66;4992025;28;24444;-74
2022/03/26 02:44:16;;;;;;;31.03;27.43;;;;;;;3.02;75.28;96811.34;4991977;28;24456;-75
2022/03/26 02:46:45;;;;;;;37.25;27.30;;;;;;;2.96;74.98;96808.88;4991818;28;24436;-75
2022/03/26 02:49:12;;;;;;;36.00;28.20;;;;;;;3.00;75.67;96807.94;4991710;28;24523;-73
2022/03/26 02:51:39;;;;;;;31.83;27.63;;;;;;;2.90;77.55;96804.72;4989660;28;24469;-74
2022/03/26 02:54:18;;;;;;;37.75;29.35;;;;;;;2.89;75.75;96809.84;4983848;28;24437;-73
2022/03/26 02:56:45;;;;;;;32.85;28.90;;;;;;;2.66;77.46;96813.59;4989468;28;25248;-74
2022/03/26 02:59:11;;;;;;;31.67;28.38;;;;;;;2.56;78.07;96809.50;4991315;28;24486;-74
2022/03/26 03:01:37;;;;;;;34.70;29.27;;;;;;;2.76;76.98;96813.47;4991486;28;24432;-75
2022/03/26 03:04:04;;;;;;;51.15;30.15;;;;;;;2.60;77.41;96808.59;4991286;28;24862;-74
2022/03/26 03:06:31;;;;;;;35.15;29.35;;;;;;;2.31;80.23;96809.00;4990902;28;24831;-74
2022/03/26 03:08:57;;;;;;;39.30;29.95;;;;;;;2.25;81.21;96809.06;4991399;28;24870;-75
2022/03/26 03:11:25;;;;;;;36.47;30.35;;;;;;;2.29;81.58;96809.88;4991221;28;24452;-74
2022/03/26 03:13:52;;;;;;;35.80;30.30;;;;;;;2.36;83.31;96809.78;4990159;28;24513;-75
2022/03/26 03:16:18;;;;;;;33.28;29.30;;;;;;;2.56;82.23;96809.50;4987716;28;24513;-73
2022/03/26 03:18:44;;;;;;;32.85;28.38;;;;;;;2.59;80.65;96818.81;4991633;28;24448;-72
2022/03/26 03:21:11;;;;;;;36.28;30.33;;;;;;;2.54;80.83;96815.50;4990679;28;24444;-72
2022/03/26 03:23:38;;;;;;;38.33;30.10;;;;;;;2.50;81.50;96807.03;4982205;28;24440;-73
2022/03/26 03:26:04;;;;;;;32.63;29.42;;;;;;;2.55;80.98;96817.19;4990908;28;24474;-73
2022/03/26 03:28:32;;;;;;;34.03;29.63;;;;;;;2.67;81.05;96809.34;4989367;28;24444;-72
2022/03/26 03:30:58;;;;;;;34.70;28.35;;;;;;;2.78;80.71;96801.47;4990939;28;24511;-73
2022/03/26 03:33:26;;;;;;;36.83;29.75;;;;;;;2.91;80.22;96805.56;4991294;28;24441;-71
2022/03/26 03:35:53;;;;;;;32.20;28.30;;;;;;;2.92;80.90;96802.13;4990912;28;25029;-73
2022/03/26 03:38:19;;;;;;;32.45;28.20;;;;;;;2.92;79.45;96799.56;4987129;28;24567;-72
2022/03/26 03:40:46;;;;;;;34.22;29.58;;;;;;;2.88;79.02;96790.25;4990305;28;25365;-73
2022/03/26 03:43:12;;;;;;;38.27;28.50;;;;;;;2.82;79.05;96792.91;4990383;28;24520;-72
2022/03/26 03:45:40;;;;;;;38.73;29.90;;;;;;;2.82;78.22;96792.91;4990819;28;24460;-75
2022/03/26 03:48:07;;;;;;;37.08;29.45;;;;;;;2.76;78.92;96791.28;4990466;28;25002;-72
2022/03/26 03:50:34;;;;;;;34.90;30.30;;;;;;;2.78;78.64;96788.69;4984694;28;24429;-72
2022/03/26 03:53:01;;;;;;;34.67;29.90;;;;;;;2.71;79.92;96798.19;4990698;28;24528;-73
2022/03/26 03:55:28;;;;;;;34.50;29.08;;;;;;;2.66;80.12;96800.81;4990634;28;25267;-73
2022/03/26 03:57:54;;;;;;;34.83;29.85;;;;;;;2.60;77.87;96800.91;4990282;28;24445;-73
2022/03/26 04:00:21;;;;;;;37.83;30.20;;;;;;;2.51;78.30;96797.63;4990035;28;24437;-72
2022/03/26 04:02:49;;;;;;;36.85;28.88;;;;;;;2.45;78.38;96798.59;4990791;28;24536;-73
2022/03/26 04:05:15;;;;;;;33.80;28.17;;;;;;;2.36;79.07;96798.69;4990650;28;24456;-73
2022/03/26 04:07:42;;;;;;;35.83;29.88;;;;;;;2.27;79.40;96796.28;4990513;28;24448;-72
2022/03/26 04:10:10;;;;;;;33.23;29.30;;;;;;;2.06;81.16;96798.25;4990136;28;24990;-72
2022/03/26 04:12:38;;;;;;;34.97;31.17;;;;;;;1.87;83.41;96799.34;4989609;28;24492;-72
2022/03/26 04:15:07;;;;;;;33.67;29.98;;;;;;;1.89;83.67;96803.59;4990621;28;24520;-72
2022/03/26 04:17:34;;;;;;;31.65;28.35;;;;;;;1.94;84.82;96800.97;4990326;28;24437;-73
2022/03/26 04:20:02;;;;;;;34.83;30.13;;;;;;;2.08;81.98;96793.97;4990366;28;24463;-72
2022/03/26 04:22:28;;;;;;;43.45;29.85;;;;;;;2.13;82.11;96799.03;4990016;28;24524;-71
2022/03/26 04:24:55;;;;;;;41.17;31.40;;;;;;;1.86;85.08;96797.66;4977115;28;24460;-72
2022/03/26 04:27:22;;;;;;;35.78;30.10;;;;;;;1.87;85.95;96801.91;4989579;28;24444;-72
2022/03/26 04:29:49;;;;;;;33.97;29.70;;;;;;;1.94;84.97;96803.53;4990361;28;24540;-75
2022/03/26 04:32:16;;;;;;;37.28;28.33;;;;;;;2.02;84.15;96799.16;4990415;28;24460;-75
2022/03/26 04:34:42;;;;;;;37.35;30.13;;;;;;;2.12;81.61;96794.78;4990038;28;24440;-72
2022/03/26 04:37:10;;;;;;;32.90;29.27;;;;;;;2.10;82.39;96799.06;4990270;28;24441;-72
2022/03/26 04:39:36;;;;;;;46.58;29.45;;;;;;;2.14;82.55;96799.00;4989636;28;24441;-72
2022/03/26 04:42:03;;;;;;;35.80;29.75;;;;;;;2.07;82.39;96793.97;4990217;28;24444;-72
2022/03/26 04:44:30;;;;;;;33.67;30.10;;;;;;;1.91;83.72;96798.44;4989234;28;24997;-72
2022/03/26 04:46:57;;;;;;;35.55;29.52;;;;;;;1.90;83.79;96801.88;4984295;28;24495;-72
2022/03/26 04:49:24;;;;;;;32.90;29.35;;;;;;;1.79;84.58;96801.16;4987359;28;24476;-72
2022/03/26 04:51:50;;;;;;;38.45;30.27;;;;;;;1.94;82.48;96808.63;4979792;28;24488;-72
2022/03/26 04:54:18;;;;;;;34.73;29.17;;;;;;;1.81;84.12;96804.53;4985675;28;24436;-72
2022/03/26 04:56:45;;;;;;;34.22;29.17;;;;;;;1.65;81.42;96806.41;4981941;28;24488;-72
2022/03/26 04:59:12;;;;;;;37.17;29.92;;;;;;;1.67;81.96;96800.44;4983939;28;25168;-74
2022/03/26 05:01:38;;;;;;;41.20;32.07;;;;;;;1.59;82.50;96799.66;4986051;28;24459;-74
2022/03/26 05:04:04;;;;;;;35.43;30.07;;;;;;;1.59;81.78;96809.03;4983606;28;25001;-75
2022/03/26 05:06:31;;;;;;;44.92;33.88;;;;;;;1.61;84.76;96807.31;4982450;28;24445;-75
2022/03/26 05:08:57;;;;;;;40.08;33.55;;;;;;;1.51;86.04;96804.00;4987264;28;24523;-75
2022/03/26 05:11:25;;;;;;;36.70;31.95;;;;;;;1.56;84.88;96804.81;4983280;28;25013;-75
2022/03/26 05:13:52;;;;;;;33.42;29.77;;;;;;;1.56;84.64;96814.16;4980661;28;24432;-74
2022/03/26 05:16:19;;;;;;;41.60;32.03;;;;;;;1.50;85.49;96809.13;4985685;28;24847;-74
2022/03/26 05:18:45;;;;;;;42.72;33.20;;;;;;;1.25;86.60;96811.09;4990673;28;24491;-74
2022/03/26 05:21:12;;;;;;;37.22;30.90;;;;;;;1.28;86.29;96809.34;4987628;28;25177;-75
2022/03/26 05:23:38;;;;;;;42.42;33.05;;;;;;;1.43;86.92;96816.00;4987229;28;24526;-75
2022/03/26 05:26:04;;;;;;;40.28;32.25;;;;;;;1.55;87.70;96817.59;4985739;28;24515;-74
2022/03/26 05:28:33;;;;;;;40.87;32.93;;;;;;;1.40;89.20;96819.44;4987009;28;24446;-72
2022/03/26 05:30:59;;;;;;;31.95;28.58;;;;;;;1.52;88.42;96815.06;4988132;28;24811;-74
2022/03/26 05:33:26;;;;;;;34.00;28.35;;;;;;;1.51;86.84;96805.72;4991044;28;24803;-75
2022/03/26 05:35:52;;;;;;;35.70;27.83;;;;;;;1.44;85.95;96807.47;4986803;28;24439;-75
2022/03/26 05:38:19;;;;;;;30.38;26.80;;;;;;;1.49;85.96;96810.84;4988390;28;24444;-75
2022/03/26 05:40:45;;;;;;;33.75;28.75;;;;;;;1.51;83.94;96818.47;4989353;28;24444;-74
2022/03/26 05:43:12;;;;;;;36.95;29.42;;;;;;;1.53;86.03;96824.44;4990236;28;24492;-74
2022/03/26 05:45:40;;;;;;;37.60;30.08;;;;;;;1.63;86.58;96834.53;4988366;28;25162;-75
2022/03/26 05:48:07;;;;;;;45.00;30.13;;;;;;;1.72;86.94;96833.59;4988803;28;24863;-75
2022/03/26 05:50:35;;;;;;;39.25;29.45;;;;;;;1.79;85.19;96834.38;4990600;28;24445;-75
2022/03/26 05:53:02;;;;;;;39.53;28.75;;;;;;;1.87;85.01;96841.06;4988423;28;24536;-74
2022/03/26 05:55:28;;;;;;;31.00;27.67;;;;;;;1.96;85.70;96842.66;4983578;28;25041;-72
2022/03/26 05:57:55;;;;;;;35.45;28.10;;;;;;;2.09;81.86;96839.09;4987165;28;25021;-72
2022/03/26 06:00:21;;;;;;;39.25;29.42;;;;;;;2.12;82.85;96848.44;4985758;28;24468;-72
2022/03/26 06:02:49;;;;;;;35.28;29.13;;;;;;;2.02;84.44;96847.69;4987360;28;24448;-73
2022/03/26 06:05:16;;;;;;;31.77;28.33;;;;;;;2.13;84.98;96853.53;4991639;28;24461;-72
2022/03/26 06:07:42;;;;;;;33.47;28.55;;;;;;;2.25;85.21;96854.25;4977871;28;24507;-73
2022/03/26 06:10:09;;;;;;;37.55;29.85;;;;;;;2.53;85.01;96864.97;4984199;28;24449;-73
2022/03/26 06:12:37;;;;;;;35.53;28.48;;;;;;;2.55;83.62;96861.50;4983951;28;24544;-73
2022/03/26 06:15:04;;;;;;;33.03;29.17;;;;;;;2.54;84.77;96867.50;4980612;28;24433;-72
2022/03/26 06:17:31;;;;;;;35.90;29.80;;;;;;;2.42;86.68;96865.94;4977912;28;24441;-72
2022/03/26 06:19:59;;;;;;;33.40;29.33;;;;;;;2.64;84.17;96868.22;4979501;28;24434;-72
2022/03/26 06:22:25;;;;;;;38.77;31.13;;;;;;;2.59;84.84;96869.97;4991149;28;25760;-72
2022/03/26 06:24:52;;;;;;;38.92;30.55;;;;;;;2.65;85.16;96869.91;4976313;28;24556;-71
2022/03/26 06:27:18;;;;;;;35.53;30.40;;;;;;;2.85;83.72;96869.59;4988579;28;24444;-72
2022/03/26 06:29:45;;;;;;;31.95;28.48;;;;;;;3.03;83.57;96877.00;4990776;28;24433;-73
2022/03/26 06:32:11;;;;;;;37.70;30.15;;;;;;;3.23;83.52;96869.03;4980181;28;24992;-73
2022/03/26 06:34:37;;;;;;;35.58;30.50;;;;;;;3.39;81.31;96870.44;4992674;28;24449;-73
2022/03/26 06:37:06;;;;;;;35.67;30.67;;;;;;;3.50;82.28;96872.84;4992259;28;24550;-72
2022/03/26 06:39:32;;;;;;;33.60;30.10;;;;;;;3.68;80.31;96866.53;4991385;28;25015;-72
2022/03/26 06:41:58;;;;;;;36.25;29.77;;;;;;;3.84;80.60;96874.78;4991958;28;25044;-73
2022/03/26 06:44:25;;;;;;;40.55;30.45;;;;;;;4.11;81.02;96881.94;4992507;28;24444;-73
2022/03/26 06:46:52;;;;;;;36.08;29.10;;;;;;;4.46;84.01;96879.56;4991866;28;24452;-73
2022/03/26 06:49:18;;;;;;;38.00;30.40;;;;;;;4.69;81.59;96885.03;4991853;28;24472;-74
2022/03/26 06:51:45;;;;;;;40.17;30.48;;;;;;;4.52;83.35;96893.06;4990913;28;24536;-74
2022/03/26 06:54:13;;;;;;;43.22;31.70;;;;;;;4.60;81.98;96887.81;4991508;28;24465;-73
2022/03/26 06:56:40;;;;;;;42.33;30.73;;;;;;;4.53;80.39;96881.13;4992181;28;25005;-74
2022/03/26 06:59:06;;;;;;;34.00;30.25;;;;;;;4.71;82.97;96888.44;4991275;28;24436;-73
2022/03/26 07:01:33;;;;;;;34.25;30.15;;;;;;;4.80;84.53;96889.94;4991636;28;24532;-74
2022/03/26 07:04:00;;;;;;;33.50;29.35;;;;;;;5.01;83.88;96886.91;4991320;28;24439;-74
2022/03/26 07:06:26;;;;;;;36.10;30.25;;;;;;;5.25;83.47;96888.03;4991636;28;24519;-75
2022/03/26 07:08:53;;;;;;;34.80;28.13;;;;;;;5.56;81.21;96893.28;4991759;28;24436;-74
2022/03/26 07:11:21;;;;;;;33.55;28.38;;;;;;;5.79;81.00;96892.69;4991465;28;24440;-74
2022/03/26 07:13:48;;;;;;;36.63;29.83;;;;;;;6.09;81.62;96900.50;4991393;28;24441;-74
2022/03/26 07:16:15;;;;;;;36.35;30.42;;;;;;;6.53;79.98;96904.41;4988851;28;24491;-74
2022/03/26 07:18:42;;;;;;;38.80;30.50;;;;;;;6.67;79.81;96905.72;4991324;28;24451;-74
2022/03/26 07:21:08;;;;;;;36.65;29.98;;;;;;;6.79;80.61;96900.25;4987607;28;24440;-75
2022/03/26 07:23:35;;;;;;;38.05;30.02;;;;;;;6.99;78.57;96897.88;4990834;28;24440;-72
2022/03/26 07:26:01;;;;;;;42.10;28.75;;;;;;;7.22;77.87;96901.50;4990723;28;24481;-75
2022/03/26 07:28:29;;;;;;;33.67;29.50;;;;;;;7.36;77.89;96901.91;4991180;28;24444;-75
2022/03/26 07:30:56;;;;;;;38.57;29.23;;;;;;;7.56;72.71;96895.25;4991377;28;24998;-74
2022/03/26 07:33:22;;;;;;;33.15;28.80;;;;;;;7.43;68.35;96899.97;4990408;28;24884;-74
2022/03/26 07:35:49;;;;;;;39.27;30.10;;;;;;;7.16;68.16;96906.84;4991278;28;24437;-74
2022/03/26 07:38:15;;;;;;;31.83;28.37;;;;;;;6.91;69.05;96902.44;4991297;28;24441;-76
2022/03/26 07:40:42;;;;;;;38.63;29.13;;;;;;;7.08;68.56;96904.47;4990200;28;24445;-75
2022/03/26 07:43:08;;;;;;;35.80;28.35;;;;;;;7.34;68.74;96902.81;4991046;28;24469;-75
2022/03/26 07:45:36;;;;;;;42.45;29.55;;;;;;;7.76;70.10;96900.59;4990206;28;24524;-76
2022/03/26 07:48:03;;;;;;;31.60;27.90;;;;;;;8.31;71.21;96900.44;4991111;28;24508;-75
2022/03/26 07:50:31;;;;;;;33.15;28.50;;;;;;;8.71;67.43;96900.69;4990640;28;24445;-76
2022/03/26 07:52:57;;;;;;;30.23;27.10;;;;;;;9.05;68.28;96903.72;4990848;28;24437;-76
2022/03/26 07:55:24;;;;;;;39.70;28.27;;;;;;;9.49;65.46;96898.53;4990866;28;24436;-75
2022/03/26 07:57:51;;;;;;;36.63;28.33;;;;;;;9.83;58.93;96900.59;4990703;28;25239;-75
2022/03/26 08:00:18;;;;;;;33.37;28.37;;;;;;;10.20;62.63;96907.66;4991249;28;21412;-76
2022/03/26 08:02:45;;;;;;;38.70;27.53;;;;;;;10.45;58.47;96909.19;4991478;28;24433;-76
2022/03/26 08:05:12;;;;;;;37.28;28.50;;;;;;;10.49;56.11;96914.16;4991584;28;20793;-76
2022/03/26 08:07:38;;;;;;;33.33;26.83;;;;;;;10.67;56.46;96909.91;4991223;28;24448;-76
2022/03/26 08:10:06;;;;;;;32.40;27.15;;;;;;;11.09;57.92;96927.03;4990105;28;24549;-76
2022/03/26 08:12:33;;;;;;;40.75;30.20;;;;;;;11.19;50.88;96914.44;4992665;28;20765;-77
2022/03/26 08:15:01;;;;;;;39.75;29.67;;;;;;;11.33;51.19;96918.06;4993553;28;20761;-77
2022/03/26 08:17:29;;;;;;;40.53;29.10;;;;;;;11.62;49.82;96916.69;4992880;28;24526;-77
2022/03/26 08:19:57;;;;;;;42.90;29.35;;;;;;;11.43;50.36;96918.50;4992490;28;20800;-76
2022/03/26 08:22:23;;;;;;;42.60;29.15;;;;;;;11.45;50.35;96914.06;4992432;28;20883;-75
2022/03/26 08:24:50;;;;;;;36.15;28.77;;;;;;;11.52;51.72;96922.38;4993303;28;20765;-77
2022/03/26 08:27:16;;;;;;;37.90;29.77;;;;;;;11.88;50.17;96918.94;4991921;28;24453;-77
2022/03/26 08:29:43;;;;;;;44.33;29.65;;;;;;;12.20;48.36;96923.38;4992032;28;24436;-75
2022/03/26 08:32:09;;;;;;;44.67;30.50;;;;;;;12.43;46.74;96922.19;4992040;28;24536;-76
2022/03/26 08:34:36;;;;;;;35.60;28.40;;;;;;;12.04;50.09;96925.03;4992800;28;24478;-77
2022/03/26 08:37:04;;;;;;;42.80;29.42;;;;;;;12.23;48.80;96928.38;4992563;28;24428;-77
2022/03/26 08:39:31;;;;;;;44.70;32.05;;;;;;;12.57;45.12;96924.06;4993667;28;24491;-77
2022/03/26 08:41:57;;;;;;;42.40;32.17;;;;;;;12.59;46.58;96923.06;4991993;28;24997;-77
2022/03/26 08:44:23;;;;;;;39.93;30.40;;;;;;;12.61;45.91;96928.19;4992555;28;24483;-74
2022/03/26 08:46:50;;;;;;;45.65;31.58;;;;;;;12.48;47.22;96924.53;4991497;28;24455;-76
2022/03/26 08:49:16;;;;;;;38.30;31.20;;;;;;;12.57;46.18;96929.28;4992714;28;20773;-77
2022/03/26 08:51:43;;;;;;;40.53;30.05;;;;;;;12.78;46.73;96933.31;4995544;28;24515;-75
2022/03/26 08:54:11;;;;;;;49.90;32.63;;;;;;;12.66;45.07;96927.94;4995899;28;24469;-75
2022/03/26 08:56:38;;;;;;;46.70;31.77;;;;;;;12.84;44.01;96937.38;4994823;28;24795;-75
2022/03/26 08:59:05;;;;;;;43.72;32.95;;;;;;;13.00;46.08;96934.78;4995251;28;24491;-74
2022/03/26 09:01:31;;;;;;;50.08;31.40;;;;;;;13.29;47.21;96934.06;4994384;28;24439;-75
2022/03/26 09:03:58;;;;;;;49.63;32.40;;;;;;;13.23;42.94;96934.41;4995502;28;24483;-72
2022/03/26 09:06:24;;;;;;;44.13;31.08;;;;;;;13.37;45.35;96933.63;4994253;28;24515;-73
2022/03/26 09:08:51;;;;;;;39.75;30.27;;;;;;;13.50;45.62;96944.22;4996055;28;24447;-75
2022/03/26 09:11:20;;;;;;;48.53;31.45;;;;;;;13.51;44.99;96933.72;4996633;28;24429;-75
2022/03/26 09:13:47;;;;;;;45.17;31.73;;;;;;;13.70;45.81;96935.28;4991227;28;24433;-72
2022/03/26 09:16:13;;;;;;;41.17;30.90;;;;;;;13.73;46.29;96932.50;4992166;28;24440;-74
2022/03/26 09:18:40;;;;;;;45.33;32.15;;;;;;;13.86;43.97;96937.84;4993418;28;24448;-70
2022/03/26 09:21:07;;;;;;;43.40;30.73;;;;;;;14.02;45.65;96938.66;4980348;28;24445;-73
2022/03/26 09:23:34;;;;;;;47.67;31.45;;;;;;;14.11;44.47;96935.50;4985131;28;24873;-73
2022/03/26 09:26:04;;;;;;;43.13;31.85;;;;;;;14.06;46.76;96927.13;4988511;28;24452;-73
2022/03/26 09:28:32;;;;;;;41.03;31.83;;;;;;;14.36;42.47;96928.88;4983594;28;24520;-72
2022/03/26 09:30:58;;;;;;;45.10;31.42;;;;;;;14.36;42.34;96936.69;4992050;28;25079;-73
2022/03/26 09:33:24;;;;;;;42.33;32.63;;;;;;;14.33;43.98;96934.25;4975894;28;24441;-75
2022/03/26 09:35:51;;;;;;;37.63;30.75;;;;;;;14.06;43.78;96931.50;4977599;28;24479;-73
2022/03/26 09:38:18;;;;;;;44.58;32.90;;;;;;;14.05;39.77;96925.44;4985337;28;24441;-73
2022/03/26 09:40:44;;;;;;;43.58;32.70;;;;;;;14.36;42.02;96919.28;4992633;28;24443;-75
2022/03/26 09:43:14;;;;;;;40.22;32.53;;;;;;;14.61;44.49;96918.69;4987885;28;24444;-76
2022/03/26 09:45:42;;;;;;;43.08;30.80;;;;;;;14.76;41.55;96929.94;4993523;28;24436;-76
2022/03/26 09:48:09;;;;;;;42.35;32.35;;;;;;;14.79;40.44;96929.72;4993401;28;24499;-78
2022/03/26 09:50:36;;;;;;;38.63;30.58;;;;;;;14.93;42.16;96918.47;4992033;28;24429;-76
2022/03/26 09:53:03;;;;;;;47.45;32.33;;;;;;;15.01;41.36;96918.81;4992698;28;25065;-76
2022/03/26 09:55:31;;;;;;;39.30;31.63;;;;;;;14.80;39.34;96920.16;4992868;28;24443;-76
2022/03/26 09:57:58;;;;;;;45.60;31.45;;;;;;;15.13;41.33;96922.44;4992255;28;24444;-76
2022/03/26 10:00:24;;;;;;;39.97;30.83;;;;;;;15.25;42.95;96921.69;4992195;28;25032;-75
2022/03/26 10:02:52;;;;;;;46.10;32.53;;;;;;;15.29;38.85;96917.09;4992408;28;24815;-76
2022/03/26 10:05:19;;;;;;;62.45;31.55;;;;;;;15.13;38.43;96910.25;4991900;28;24843;-75
2022/03/26 10:07:47;;;;;;;40.35;30.25;;;;;;;15.34;38.94;96913.25;4991985;28;24874;-76
2022/03/26 10:10:22;;;;;;;42.42;30.58;;;;;;;15.24;39.17;96909.56;4992693;28;24879;-75
2022/03/26 10:12:51;;;;;;;39.88;31.75;;;;;;;15.28;38.03;96910.19;4987332;28;24649;-75
2022/03/26 10:15:17;;;;;;;40.92;31.02;;;;;;;15.42;39.65;96912.75;4988648;28;24523;-76
2022/03/26 10:17:46;;;;;;;42.53;32.00;;;;;;;15.52;37.47;96913.03;4992393;28;24527;-76
2022/03/26 10:20:15;;;;;;;47.57;30.70;;;;;;;15.68;40.40;96911.09;4991951;28;25013;-76
2022/03/26 10:22:43;;;;;;;41.80;31.30;;;;;;;15.75;37.47;96901.09;4991529;28;24433;-76
2022/03/26 10:25:11;;;;;;;45.00;31.63;;;;;;;15.84;40.27;96900.53;4992056;28;24532;-76
2022/03/26 10:27:40;;;;;;;38.15;30.50;;;;;;;15.88;38.09;96902.00;4991461;28;24460;-76
2022/03/26 10:30:08;;;;;;;42.08;30.60;;;;;;;15.99;40.13;96893.44;4992083;28;24536;-75
2022/03/26 10:32:41;;;;;;;43.30;30.75;;;;;;;15.92;36.11;96893.00;4991962;28;24982;-76
2022/03/26 10:35:15;;;;;;;43.05;29.63;;;;;;;15.87;35.10;96902.91;4991315;28;24540;-75
2022/03/26 10:37:43;;;;;;;42.30;29.67;;;;;;;16.07;38.48;96893.75;4991622;28;24441;-75
2022/03/26 10:40:21;;;;;;;41.88;28.65;;;;;;;15.81;38.89;96893.72;4990143;28;24440;-75
2022/03/26 10:42:57;;;;;;;41.40;29.88;;;;;;;15.77;36.92;96900.06;4990265;28;24441;-74
2022/03/26 10:45:24;;;;;;;41.53;28.45;;;;;;;15.95;35.13;96890.19;4991559;28;24449;-76
2022/03/26 10:47:53;;;;;;;38.53;29.93;;;;;;;15.92;39.81;96891.22;4991625;28;25066;-75
2022/03/26 10:50:21;;;;;;;42.42;28.80;;;;;;;15.94;38.47;96899.81;4990834;28;24807;-75
2022/03/26 10:52:47;;;;;;;35.40;28.92;;;;;;;15.93;38.10;96892.88;4991114;28;24472;-74
2022/03/26 10:55:15;;;;;;;36.92;29.42;;;;;;;16.04;34.75;96891.34;4991100;28;24437;-75
2022/03/26 10:57:46;;;;;;;38.17;28.58;;;;;;;15.91;32.93;96888.72;4991316;28;24583;-75
2022/03/26 11:00:13;;;;;;;36.53;28.40;;;;;;;16.01;36.49;96883.72;4991390;28;24864;-76
2022/03/26 11:02:41;;;;;;;39.53;28.90;;;;;;;16.08;35.39;96885.81;4991950;28;24437;-75
2022/03/26 11:05:09;;;;;;;41.20;29.83;;;;;;;16.22;36.52;96884.88;4991248;28;24436;-76
2022/03/26 11:07:39;;;;;;;40.45;30.02;;;;;;;16.15;36.54;96881.84;4991204;28;24461;-76
2022/03/26 11:10:07;;;;;;;44.67;30.42;;;;;;;16.10;35.51;96889.16;4991504;28;24528;-76
2022/03/26 11:12:34;;;;;;;44.22;30.77;;;;;;;16.12;37.31;96884.66;4989762;28;24437;-75
2022/03/26 11:15:03;;;;;;;45.63;30.92;;;;;;;16.09;36.25;96887.50;4989776;28;24429;-75
2022/03/26 11:17:46;;;;;;;40.95;31.00;;;;;;;16.08;36.65;96882.34;4990701;28;24473;-76
2022/03/26 11:20:26;;;;;;;47.75;31.42;;;;;;;16.21;37.25;96888.44;4991027;28;24440;-75
2022/03/26 11:23:06;;;;;;;37.38;29.35;;;;;;;16.25;34.50;96881.25;4990898;28;24503;-75